createdAt,value
2022-10-29T00:01:30.321Z,1.60
2022-10-29T00:03:59.578Z,1.40
2022-10-29T00:06:28.339Z,1.50
2022-10-29T00:08:56.192Z,1.60
2022-10-29T00:11:24.067Z,1.37
2022-10-29T00:13:54.993Z,1.40
2022-10-29T00:16:23.694Z,1.60
2022-10-29T00:18:51.591Z,1.30
2022-10-29T00:21:21.547Z,1.60
2022-10-29T00:23:49.507Z,1.30
2022-10-29T00:26:17.544Z,1.20
2022-10-29T00:28:45.432Z,1.30
2022-10-29T00:31:18.732Z,1.30
2022-10-29T00:33:46.683Z,1.30
2022-10-29T00:36:15.344Z,1.40
2022-10-29T00:38:44.611Z,1.30
2022-10-29T00:41:13.573Z,1.50
2022-10-29T00:43:42.962Z,1.50
2022-10-29T00:46:12.270Z,1.40
2022-10-29T00:48:41.901Z,1.30
2022-10-29T00:51:10.266Z,1.50
2022-10-29T00:53:39.879Z,1.27
2022-10-29T00:56:09.234Z,1.43
2022-10-29T00:58:37.100Z,1.40
2022-10-29T01:01:05.103Z,1.60
2022-10-29T01:03:33.012Z,1.30
2022-10-29T01:06:01.072Z,1.80
2022-10-29T01:08:28.932Z,1.50
2022-10-29T01:11:00.478Z,1.47
2022-10-29T01:13:46.629Z,1.40
2022-10-29T01:16:19.193Z,1.43
2022-10-29T01:18:49.491Z,1.40
2022-10-29T01:21:40.613Z,1.30
2022-10-29T01:24:53.016Z,1.60
2022-10-29T01:27:44.844Z,1.47
2022-10-29T01:30:21.158Z,1.40
2022-10-29T01:32:57.506Z,1.43
2022-10-29T01:35:29.032Z,1.43
2022-10-29T01:38:03.049Z,1.40
2022-10-29T01:40:33.877Z,1.50
2022-10-29T01:43:05.662Z,1.70
2022-10-29T01:45:35.029Z,1.50
2022-10-29T01:48:06.784Z,1.47
2022-10-29T01:50:34.645Z,1.27
2022-10-29T01:53:02.500Z,1.63
2022-10-29T01:55:31.061Z,1.50
2022-10-29T01:57:59.374Z,1.33
2022-10-29T02:00:27.549Z,1.30
2022-10-29T02:03:01.683Z,1.50
2022-10-29T02:05:33.436Z,1.50
2022-10-29T02:08:06.372Z,1.70
2022-10-29T02:10:34.916Z,1.50
2022-10-29T02:13:02.784Z,1.40
2022-10-29T02:15:32.793Z,1.43
2022-10-29T02:18:01.014Z,1.50
2022-10-29T02:20:28.944Z,1.60
2022-10-29T02:22:58.198Z,1.50
2022-10-29T02:25:26.111Z,1.37
2022-10-29T02:27:54.268Z,1.40
2022-10-29T02:30:22.331Z,1.57
2022-10-29T02:32:50.194Z,1.53
2022-10-29T02:35:18.069Z,1.50
2022-10-29T02:37:45.914Z,1.53
2022-10-29T02:40:15.544Z,1.33
2022-10-29T02:42:43.419Z,1.50
2022-10-29T02:45:11.822Z,1.57
2022-10-29T02:47:39.691Z,1.80
2022-10-29T02:50:08.877Z,1.60
2022-10-29T02:52:36.759Z,1.50
2022-10-29T02:55:04.844Z,1.43
2022-10-29T02:57:34.101Z,1.73
2022-10-29T03:00:01.967Z,1.40
2022-10-29T03:02:29.915Z,1.40
2022-10-29T03:04:58.489Z,1.80
2022-10-29T03:07:26.356Z,1.87
2022-10-29T03:09:54.255Z,1.70
2022-10-29T03:12:22.148Z,1.40
2022-10-29T03:14:51.378Z,1.47
2022-10-29T03:17:19.247Z,1.40
2022-10-29T03:19:47.136Z,1.33
2022-10-29T03:22:15.008Z,1.50
2022-10-29T03:24:42.859Z,1.60
2022-10-29T03:27:10.726Z,1.47
2022-10-29T03:29:38.679Z,1.67
2022-10-29T03:32:08.172Z,1.67
2022-10-29T03:34:36.021Z,1.40
2022-10-29T03:37:03.887Z,1.53
2022-10-29T03:39:31.754Z,1.50
2022-10-29T03:41:59.657Z,1.70
2022-10-29T03:44:27.565Z,1.70
2022-10-29T03:46:55.425Z,1.90
2022-10-29T03:49:24.717Z,1.70
2022-10-29T03:51:52.593Z,1.40
2022-10-29T03:54:20.574Z,1.53
2022-10-29T03:56:48.446Z,1.50
2022-10-29T03:59:16.320Z,1.50
2022-10-29T04:01:44.287Z,1.50
2022-10-29T04:04:12.446Z,1.70
2022-10-29T04:06:41.658Z,1.80
2022-10-29T04:09:09.605Z,1.70
2022-10-29T04:11:37.481Z,1.70
2022-10-29T04:14:05.466Z,1.67
2022-10-29T04:16:33.332Z,1.90
2022-10-29T04:19:01.218Z,1.80
2022-10-29T04:23:25.475Z,1.67
2022-10-29T04:28:02.964Z,1.60
2022-10-29T04:29:53.950Z,1.53
2022-10-29T04:32:21.819Z,1.90
2022-10-29T04:34:49.679Z,1.70
2022-10-29T04:37:17.572Z,1.77
2022-10-29T04:39:46.829Z,1.60
2022-10-29T04:42:14.704Z,1.77
2022-10-29T04:44:42.575Z,1.60
2022-10-29T04:47:10.449Z,1.63
2022-10-29T04:49:38.317Z,1.60
2022-10-29T04:52:06.379Z,1.67
2022-10-29T04:54:34.263Z,1.70
2022-10-29T04:57:03.460Z,1.53
2022-10-29T04:59:31.327Z,1.80
2022-10-29T05:01:59.184Z,1.50
2022-10-29T05:04:29.349Z,1.70
2022-10-29T05:06:57.224Z,1.60
2022-10-29T05:09:25.173Z,1.63
2022-10-29T05:11:53.066Z,1.70
2022-10-29T05:14:22.318Z,1.90
2022-10-29T05:16:50.202Z,1.70
2022-10-29T05:19:18.087Z,1.70
2022-10-29T05:21:45.978Z,1.83
2022-10-29T05:24:13.857Z,1.80
2022-10-29T05:26:41.758Z,1.50
2022-10-29T05:29:09.670Z,1.60
2022-10-29T05:31:38.935Z,1.90
2022-10-29T05:34:06.799Z,1.67
2022-10-29T05:36:34.680Z,1.63
2022-10-29T05:39:02.530Z,2.00
2022-10-29T05:41:30.424Z,1.70
2022-10-29T05:43:58.436Z,1.80
2022-10-29T05:46:26.296Z,1.87
2022-10-29T05:48:55.571Z,1.80
2022-10-29T05:51:23.463Z,1.90
2022-10-29T05:53:51.312Z,1.70
2022-10-29T05:56:19.178Z,1.83
2022-10-29T05:58:49.773Z,1.57
2022-10-29T06:01:19.644Z,1.70
2022-10-29T06:03:47.732Z,1.80
2022-10-29T06:06:20.209Z,1.90
2022-10-29T06:08:48.180Z,1.70
2022-10-29T06:11:16.040Z,1.60
2022-10-29T06:13:43.912Z,1.83
2022-10-29T06:16:11.756Z,1.80
2022-10-29T06:18:39.637Z,1.90
2022-10-29T06:21:07.496Z,1.70
2022-10-29T06:23:36.771Z,1.87
2022-10-29T06:26:04.676Z,1.87
2022-10-29T06:28:34.677Z,1.70
2022-10-29T06:31:02.930Z,2.00
2022-10-29T06:33:30.802Z,1.70
2022-10-29T06:36:00.105Z,1.93
2022-10-29T06:38:27.988Z,1.70
2022-10-29T06:40:57.196Z,1.70
2022-10-29T06:43:25.061Z,1.63
2022-10-29T06:45:52.946Z,2.10
2022-10-29T06:48:22.422Z,1.87
2022-10-29T06:50:50.922Z,1.70
2022-10-29T06:53:18.967Z,2.27
2022-10-29T06:55:46.828Z,1.70
2022-10-29T06:58:16.945Z,1.80
2022-10-29T07:00:45.139Z,1.80
2022-10-29T07:03:13.590Z,1.90
2022-10-29T07:05:41.483Z,1.80
2022-10-29T07:08:09.396Z,1.70
2022-10-29T07:10:37.330Z,1.90
2022-10-29T07:13:05.219Z,1.77
2022-10-29T07:15:34.449Z,2.10
2022-10-29T07:18:03.133Z,1.80
2022-10-29T07:20:31.928Z,1.77
2022-10-29T07:23:00.306Z,1.80
2022-10-29T07:25:28.249Z,1.80
2022-10-29T07:27:56.597Z,1.83
2022-10-29T07:30:24.789Z,2.00
2022-10-29T07:32:54.059Z,2.00
2022-10-29T07:35:21.909Z,1.93
2022-10-29T07:37:49.823Z,1.93
2022-10-29T07:40:17.849Z,1.90
2022-10-29T07:42:45.732Z,1.90
2022-10-29T07:45:13.646Z,2.10
2022-10-29T07:47:42.838Z,2.00
2022-10-29T07:50:12.759Z,2.13
2022-10-29T07:52:40.646Z,2.10
2022-10-29T07:55:09.248Z,2.00
2022-10-29T07:57:37.161Z,2.13
2022-10-29T08:00:05.671Z,2.30
2022-10-29T08:02:42.117Z,2.27
2022-10-29T08:05:11.682Z,1.90
2022-10-29T08:07:39.547Z,2.20
2022-10-29T08:10:08.301Z,2.10
2022-10-29T08:12:36.166Z,2.30
2022-10-29T08:15:05.783Z,2.30
2022-10-29T08:17:33.746Z,2.40
2022-10-29T08:20:01.657Z,2.67
2022-10-29T08:22:32.805Z,2.70
2022-10-29T08:25:00.674Z,2.60
2022-10-29T08:27:28.797Z,3.03
2022-10-29T08:29:56.726Z,2.50
2022-10-29T08:32:24.622Z,2.50
2022-10-29T08:34:52.514Z,2.80
2022-10-29T08:37:20.403Z,2.93
2022-10-29T08:39:49.688Z,2.87
2022-10-29T08:42:23.766Z,2.77
2022-10-29T08:44:58.396Z,2.33
2022-10-29T08:47:26.303Z,2.60
2022-10-29T08:50:01.391Z,2.70
2022-10-29T08:52:30.243Z,3.10
2022-10-29T08:55:04.917Z,3.00
2022-10-29T08:57:34.251Z,2.90
2022-10-29T09:00:05.412Z,3.00
2022-10-29T09:02:33.316Z,2.60
2022-10-29T09:05:02.505Z,2.77
2022-10-29T09:07:39.055Z,2.83
2022-10-29T09:10:11.584Z,2.97
2022-10-29T09:12:52.131Z,2.77
2022-10-29T09:15:29.606Z,2.80
2022-10-29T09:18:11.206Z,2.73
2022-10-29T09:20:44.125Z,2.97
2022-10-29T09:23:15.321Z,2.70
2022-10-29T09:25:46.797Z,2.90
2022-10-29T09:28:21.181Z,2.60
2022-10-29T09:30:51.317Z,2.90
2022-10-29T09:33:20.265Z,2.60
2022-10-29T09:35:49.128Z,2.87
2022-10-29T09:38:18.392Z,2.50
2022-10-29T09:40:47.666Z,2.80
2022-10-29T09:43:29.348Z,2.63
2022-10-29T09:46:00.355Z,2.80
2022-10-29T09:48:31.069Z,2.63
2022-10-29T09:51:02.787Z,2.30
2022-10-29T09:53:30.777Z,2.40
2022-10-29T09:56:00.044Z,3.10
2022-10-29T09:58:28.611Z,2.70
2022-10-29T10:00:57.003Z,2.50
2022-10-29T10:03:28.133Z,2.40
2022-10-29T10:06:01.526Z,2.50
2022-10-29T10:08:29.511Z,2.60
2022-10-29T10:10:59.938Z,2.47
2022-10-29T10:13:28.907Z,2.80
2022-10-29T10:15:57.827Z,2.60
2022-10-29T10:18:26.427Z,2.50
2022-10-29T10:21:06.211Z,2.47
2022-10-29T10:23:44.799Z,2.40
2022-10-29T10:26:39.785Z,2.50
2022-10-29T10:29:11.841Z,2.90
2022-10-29T10:31:39.809Z,2.40
2022-10-29T10:34:18.489Z,2.20
2022-10-29T10:36:48.833Z,2.47
2022-10-29T10:39:36.016Z,2.40
2022-10-29T10:42:06.141Z,2.30
2022-10-29T10:44:34.071Z,2.40
2022-10-29T10:47:07.683Z,2.70
2022-10-29T10:49:36.295Z,2.37
2022-10-29T10:52:05.214Z,2.33
2022-10-29T10:54:36.784Z,2.47
2022-10-29T10:57:07.092Z,2.53
2022-10-29T10:59:43.834Z,2.30
2022-10-29T11:02:18.761Z,2.27
2022-10-29T11:04:46.680Z,2.53
2022-10-29T11:07:14.558Z,2.23
2022-10-29T11:09:44.297Z,2.50
2022-10-29T11:12:14.621Z,2.10
2022-10-29T11:14:45.781Z,2.27
2022-10-29T11:17:27.050Z,2.40
2022-10-29T11:19:56.828Z,2.23
2022-10-29T11:22:27.263Z,6.17
2022-10-29T11:24:58.429Z,3.60
2022-10-29T11:27:33.512Z,3.00
2022-10-29T11:30:04.219Z,2.83
2022-10-29T11:32:38.814Z,3.27
2022-10-29T11:35:10.131Z,2.80
2022-10-29T11:37:41.334Z,2.70
2022-10-29T11:40:13.702Z,2.40
2022-10-29T11:42:42.984Z,2.67
2022-10-29T11:45:13.215Z,2.57
2022-10-29T11:47:51.243Z,2.53
2022-10-29T11:50:24.018Z,2.47
2022-10-29T11:52:55.599Z,2.13
2022-10-29T11:55:29.316Z,2.50
2022-10-29T11:58:00.207Z,2.60
2022-10-29T12:00:31.860Z,2.57
2022-10-29T12:03:19.224Z,2.20
2022-10-29T12:05:50.231Z,2.77
2022-10-29T12:08:27.153Z,2.30
2022-10-29T12:10:58.675Z,2.57
2022-10-29T12:13:36.260Z,2.67
2022-10-29T12:16:12.565Z,2.33
2022-10-29T12:18:44.996Z,2.17
2022-10-29T12:21:17.687Z,2.60
2022-10-29T12:23:51.374Z,2.30
2022-10-29T12:26:21.606Z,2.30
2022-10-29T12:28:53.977Z,2.40
2022-10-29T12:31:25.329Z,2.67
2022-10-29T12:33:56.636Z,2.47
2022-10-29T12:36:28.766Z,2.20
2022-10-29T12:38:57.081Z,2.23
2022-10-29T12:41:26.481Z,2.00
2022-10-29T12:44:00.010Z,2.10
2022-10-29T12:46:31.854Z,2.20
2022-10-29T12:49:03.193Z,2.30
2022-10-29T12:51:34.925Z,2.27
2022-10-29T12:54:17.243Z,2.37
2022-10-29T12:56:47.870Z,2.20
2022-10-29T12:59:33.895Z,2.27
2022-10-29T13:02:34.562Z,2.00
2022-10-29T13:05:42.103Z,2.23
2022-10-29T13:08:24.186Z,1.93
2022-10-29T13:10:55.751Z,2.10
2022-10-29T13:13:50.731Z,2.40
2022-10-29T13:16:21.313Z,2.03
2022-10-29T13:18:54.038Z,2.17
2022-10-29T13:21:59.953Z,2.07
2022-10-29T13:24:28.143Z,1.90
2022-10-29T13:26:58.153Z,2.10
2022-10-29T13:29:48.942Z,2.33
2022-10-29T13:32:34.768Z,2.00
2022-10-29T13:35:04.250Z,1.93
2022-10-29T13:38:11.159Z,2.00
2022-10-29T13:41:08.799Z,2.00
2022-10-29T13:43:36.990Z,2.00
2022-10-29T13:46:44.945Z,2.00
2022-10-29T13:49:17.782Z,2.10
2022-10-29T13:51:54.758Z,1.67
2022-10-29T13:54:35.664Z,1.83
2022-10-29T13:57:05.487Z,1.90
2022-10-29T13:59:40.228Z,1.97
2022-10-29T14:02:47.036Z,1.77
2022-10-29T14:05:18.661Z,2.23
2022-10-29T14:07:51.382Z,2.00
2022-10-29T14:10:21.461Z,1.83
2022-10-29T14:12:50.125Z,1.90
2022-10-29T14:15:18.493Z,2.00
2022-10-29T14:17:46.365Z,1.90
2022-10-29T14:20:23.401Z,1.93
2022-10-29T14:22:51.367Z,1.93
2022-10-29T14:25:31.115Z,1.83
2022-10-29T14:28:19.978Z,1.73
2022-10-29T14:30:48.277Z,1.90
2022-10-29T14:33:21.926Z,1.70
2022-10-29T14:35:51.181Z,1.70
2022-10-29T14:38:19.045Z,1.80
2022-10-29T14:40:46.994Z,1.87
2022-10-29T14:43:20.175Z,1.70
2022-10-29T14:45:48.044Z,2.10
2022-10-29T14:48:16.355Z,1.57
2022-10-29T14:50:46.365Z,1.67
2022-10-29T14:53:24.941Z,1.90
2022-10-29T14:55:52.802Z,2.00
2022-10-29T14:58:21.977Z,2.30
2022-10-29T15:00:53.309Z,1.70
2022-10-29T15:03:22.929Z,1.73
2022-10-29T15:05:50.853Z,1.70
2022-10-29T15:08:29.081Z,1.70
2022-10-29T15:10:58.244Z,1.60
2022-10-29T15:13:31.763Z,2.00
2022-10-29T15:16:01.158Z,1.70
2022-10-29T15:18:29.131Z,1.73
2022-10-29T15:20:57.075Z,1.87
2022-10-29T15:23:27.259Z,1.80
2022-10-29T15:25:59.313Z,1.60
2022-10-29T15:28:28.056Z,1.80
2022-10-29T15:30:55.970Z,1.60
2022-10-29T15:33:27.115Z,1.93
2022-10-29T15:35:56.665Z,1.70
2022-10-29T15:39:14.742Z,1.90
2022-10-29T15:41:46.334Z,1.80
2022-10-29T15:44:36.779Z,1.70
2022-10-29T15:47:23.162Z,1.77
2022-10-29T15:49:51.053Z,1.90
2022-10-29T15:52:19.801Z,1.60
2022-10-29T15:54:49.215Z,1.67
2022-10-29T15:57:17.678Z,1.90
2022-10-29T15:59:45.582Z,1.80
2022-10-29T16:02:14.025Z,1.70
2022-10-29T16:04:41.988Z,1.80
2022-10-29T16:07:11.343Z,1.90
2022-10-29T16:09:39.232Z,1.60
2022-10-29T16:12:10.037Z,1.60
2022-10-29T16:14:37.902Z,1.47
2022-10-29T16:17:07.519Z,1.70
2022-10-29T16:19:35.408Z,1.80
2022-10-29T16:22:03.330Z,1.90
2022-10-29T16:24:31.256Z,1.77
2022-10-29T16:26:59.122Z,1.50
2022-10-29T16:29:28.387Z,1.57
2022-10-29T16:31:56.264Z,1.80
2022-10-29T16:34:24.858Z,1.60
2022-10-29T16:36:52.883Z,1.70
2022-10-29T16:39:20.766Z,1.50
2022-10-29T16:41:48.649Z,1.60
2022-10-29T16:44:16.514Z,1.60
2022-10-29T16:46:45.860Z,1.60
2022-10-29T16:49:13.845Z,1.60
2022-10-29T16:51:41.795Z,1.87
2022-10-29T16:54:09.678Z,1.50
2022-10-29T16:56:37.550Z,1.63
2022-10-29T16:59:05.600Z,1.60
2022-10-29T17:01:33.494Z,1.67
2022-10-29T17:04:02.757Z,1.77
2022-10-29T17:06:30.686Z,1.60
2022-10-29T17:08:58.585Z,1.67
2022-10-29T17:11:26.452Z,1.57
2022-10-29T17:13:54.666Z,1.80
2022-10-29T17:16:22.550Z,1.50
2022-10-29T17:18:51.915Z,1.73
2022-10-29T17:21:21.199Z,1.63
2022-10-29T17:23:49.091Z,1.40
2022-10-29T17:26:17.002Z,1.43
2022-10-29T17:28:45.006Z,1.50
2022-10-29T17:31:12.904Z,1.60
2022-10-29T17:33:40.805Z,1.50
2022-10-29T17:36:14.636Z,1.50
2022-10-29T17:38:43.903Z,1.50
2022-10-29T17:41:11.854Z,1.50
2022-10-29T17:43:39.796Z,1.60
2022-10-29T17:46:07.892Z,1.50
2022-10-29T17:48:36.573Z,1.50
2022-10-29T17:51:04.600Z,1.27
2022-10-29T17:53:32.547Z,1.37
2022-10-29T17:56:01.965Z,1.67
2022-10-29T17:58:30.977Z,1.60
2022-10-29T18:01:04.302Z,1.50
2022-10-29T18:03:32.212Z,1.50
2022-10-29T18:06:01.787Z,1.50
2022-10-29T18:08:29.827Z,1.47
2022-10-29T18:11:06.457Z,1.77
2022-10-29T18:13:35.191Z,1.53
2022-10-29T18:16:03.170Z,1.40
2022-10-29T18:18:42.765Z,1.50
2022-10-29T18:21:22.641Z,1.37
2022-10-29T18:23:50.733Z,1.50
2022-10-29T18:26:25.392Z,1.47
2022-10-29T18:28:53.426Z,1.50
2022-10-29T18:31:21.381Z,1.60
2022-10-29T18:33:49.358Z,1.40
2022-10-29T18:36:17.254Z,1.30
2022-10-29T18:38:45.176Z,1.30
2022-10-29T18:41:13.073Z,1.40
2022-10-29T18:43:42.330Z,1.73
2022-10-29T18:46:10.710Z,1.60
2022-10-29T18:48:38.822Z,1.50
2022-10-29T18:51:07.863Z,1.60
2022-10-29T18:53:36.146Z,1.50
2022-10-29T18:56:04.370Z,1.30
2022-10-29T18:58:33.573Z,1.43
2022-10-29T19:01:06.578Z,1.60
2022-10-29T19:03:34.590Z,1.30
2022-10-29T19:06:02.993Z,1.40
2022-10-29T19:08:30.875Z,1.60
2022-10-29T19:11:02.779Z,1.33
2022-10-29T19:13:30.843Z,1.50
2022-10-29T19:16:02.154Z,1.27
2022-10-29T19:18:31.997Z,1.30
2022-10-29T19:21:03.942Z,1.40
2022-10-29T19:23:32.077Z,1.50
2022-10-29T19:26:03.565Z,1.40
2022-10-29T19:28:31.490Z,1.47
2022-10-29T19:31:02.845Z,1.30
2022-10-29T19:33:32.130Z,1.30
2022-10-29T19:36:00.201Z,1.40
2022-10-29T19:38:28.221Z,1.40
2022-10-29T19:40:56.944Z,1.50
2022-10-29T19:43:24.870Z,1.50
2022-10-29T19:45:52.776Z,1.53
2022-10-29T19:48:20.678Z,1.20
2022-10-29T19:50:55.945Z,1.30
2022-10-29T19:53:23.972Z,1.50
2022-10-29T19:55:52.217Z,1.30
2022-10-29T19:58:20.288Z,1.20
2022-10-29T20:00:48.297Z,1.30
2022-10-29T20:03:16.370Z,1.43
2022-10-29T20:05:44.402Z,1.40
2022-10-29T20:08:16.011Z,1.50
2022-10-29T20:10:44.618Z,1.40
2022-10-29T20:13:12.541Z,1.30
2022-10-29T20:15:40.666Z,1.50
2022-10-29T20:18:08.558Z,1.40
2022-10-29T20:20:36.468Z,1.50
2022-10-29T20:23:04.357Z,1.40
2022-10-29T20:25:33.602Z,1.30
2022-10-29T20:28:02.617Z,1.40
2022-10-29T20:30:30.483Z,1.40
2022-10-29T20:32:58.684Z,1.53
2022-10-29T20:35:26.783Z,1.43
2022-10-29T20:38:45.805Z,1.53
2022-10-29T20:41:15.004Z,1.30
2022-10-29T20:43:42.887Z,1.40
2022-10-29T20:46:10.784Z,1.50
2022-10-29T20:48:38.676Z,1.50
2022-10-29T20:51:06.831Z,1.60
2022-10-29T20:53:34.695Z,1.40
2022-10-29T20:56:02.566Z,1.53
2022-10-29T20:58:31.816Z,1.50
2022-10-29T21:01:05.928Z,1.73
2022-10-29T21:03:33.872Z,1.60
2022-10-29T21:06:02.961Z,1.70
2022-10-29T21:08:31.120Z,1.47
2022-10-29T21:11:00.287Z,1.40
2022-10-29T21:13:28.266Z,1.50
2022-10-29T21:15:57.669Z,1.30
2022-10-29T21:18:25.553Z,1.43
2022-10-29T21:20:53.431Z,1.43
2022-10-29T21:23:23.834Z,1.60
2022-10-29T21:25:53.733Z,1.30
2022-10-29T21:28:21.643Z,1.40
2022-10-29T21:30:49.542Z,1.40
2022-10-29T21:33:18.838Z,1.40
2022-10-29T21:35:50.827Z,1.40
2022-10-29T21:38:18.988Z,1.60
2022-10-29T21:40:46.916Z,1.50
2022-10-29T21:43:14.873Z,1.43
2022-10-29T21:45:42.851Z,1.60
2022-10-29T21:48:10.832Z,1.37
2022-10-29T21:50:40.168Z,1.50
2022-10-29T21:53:08.493Z,1.60
2022-10-29T21:55:36.503Z,1.50
2022-10-29T21:58:04.437Z,1.60
2022-10-29T22:00:32.759Z,1.43
2022-10-29T22:03:04.345Z,1.50
2022-10-29T22:05:32.817Z,1.60
2022-10-29T22:08:02.132Z,1.60
2022-10-29T22:10:30.153Z,1.67
2022-10-29T22:12:58.460Z,1.60
2022-10-29T22:15:26.664Z,1.37
2022-10-29T22:17:54.527Z,1.67
2022-10-29T22:20:22.425Z,1.50
2022-10-29T22:22:50.312Z,1.40
2022-10-29T22:25:21.221Z,1.60
2022-10-29T22:27:49.084Z,1.50
2022-10-29T22:30:17.087Z,1.50
2022-10-29T22:32:44.941Z,1.70
2022-10-29T22:35:12.819Z,1.53
2022-10-29T22:37:40.781Z,1.53
2022-10-29T22:40:10.257Z,1.50
2022-10-29T22:42:39.483Z,1.40
2022-10-29T22:45:08.347Z,1.60
2022-10-29T22:47:36.199Z,1.40
2022-10-29T22:50:04.177Z,1.70
2022-10-29T22:52:32.146Z,1.57
2022-10-29T22:55:00.065Z,1.53
2022-10-29T22:57:27.946Z,1.40
2022-10-29T22:59:57.166Z,1.53
2022-10-29T23:02:25.192Z,1.43
2022-10-29T23:04:53.684Z,1.50
2022-10-29T23:07:21.687Z,1.43
2022-10-29T23:09:50.219Z,1.60
2022-10-29T23:12:18.075Z,1.67
2022-10-29T23:14:46.011Z,1.40
2022-10-29T23:17:21.000Z,1.50
2022-10-29T23:19:48.850Z,1.47
2022-10-29T23:22:16.781Z,1.60
2022-10-29T23:24:44.652Z,1.50
2022-10-29T23:27:12.555Z,1.67
2022-10-29T23:29:40.447Z,1.53
2022-10-29T23:32:08.321Z,1.50
2022-10-29T23:34:37.569Z,1.50
2022-10-29T23:37:08.801Z,1.60
2022-10-29T23:39:37.992Z,1.40
2022-10-29T23:42:05.967Z,1.50
2022-10-29T23:44:33.863Z,1.50
2022-10-29T23:47:01.758Z,1.50
2022-10-29T23:49:29.660Z,1.60
2022-10-29T23:51:58.873Z,1.50
2022-10-29T23:54:26.729Z,1.50
2022-10-29T23:56:54.599Z,1.33
2022-10-29T23:59:22.476Z,1.40
